sensor_id;sensor_type;location;lat;lon;timestamp;pressure;altitude;pressure_sealevel;temperature;humidity
75006;BME280;63553;51.814;4.600;2024-01-25T00:01:56;102994.19;;;15.54;67.83
75006;BME280;63553;51.814;4.600;2024-01-25T00:04:22;102995.63;;;15.51;67.99
75006;BME280;63553;51.814;4.600;2024-01-25T00:06:47;102973.22;;;15.51;68.22
75006;BME280;63553;51.814;4.600;2024-01-25T00:09:12;102976.34;;;15.50;68.06
75006;BME280;63553;51.814;4.600;2024-01-25T00:11:38;102988.34;;;15.50;68.22
75006;BME280;63553;51.814;4.600;2024-01-25T00:14:03;102987.00;;;15.48;68.17
75006;BME280;63553;51.814;4.600;2024-01-25T00:16:30;102983.91;;;15.49;68.21
75006;BME280;63553;51.814;4.600;2024-01-25T00:18:55;102985.03;;;15.48;68.14
75006;BME280;63553;51.814;4.600;2024-01-25T00:21:20;102981.69;;;15.46;68.21
75006;BME280;63553;51.814;4.600;2024-01-25T00:23:46;102970.75;;;15.45;68.10
75006;BME280;63553;51.814;4.600;2024-01-25T00:26:12;102975.84;;;15.43;68.33
75006;BME280;63553;51.814;4.600;2024-01-25T00:28:37;102988.41;;;15.45;68.36
75006;BME280;63553;51.814;4.600;2024-01-25T00:31:03;102987.06;;;15.43;68.27
75006;BME280;63553;51.814;4.600;2024-01-25T00:33:28;102973.88;;;15.43;68.46
75006;BME280;63553;51.814;4.600;2024-01-25T00:35:54;102980.59;;;15.42;68.52
75006;BME280;63553;51.814;4.600;2024-01-25T00:38:19;102979.84;;;15.37;68.42
75006;BME280;63553;51.814;4.600;2024-01-25T00:40:45;102977.03;;;15.37;68.74
75006;BME280;63553;51.814;4.600;2024-01-25T00:43:10;102973.13;;;15.38;68.65
75006;BME280;63553;51.814;4.600;2024-01-25T00:45:36;102979.25;;;15.40;68.85
75006;BME280;63553;51.814;4.600;2024-01-25T00:48:02;102986.81;;;15.39;68.86
75006;BME280;63553;51.814;4.600;2024-01-25T00:50:28;102984.34;;;15.38;68.98
75006;BME280;63553;51.814;4.600;2024-01-25T00:52:53;102973.72;;;15.35;69.21
75006;BME280;63553;51.814;4.600;2024-01-25T00:55:19;102970.91;;;15.35;69.14
75006;BME280;63553;51.814;4.600;2024-01-25T00:57:45;102984.94;;;15.35;69.46
75006;BME280;63553;51.814;4.600;2024-01-25T01:00:11;102984.38;;;15.33;69.39
75006;BME280;63553;51.814;4.600;2024-01-25T01:02:43;102985.53;;;15.32;69.44
75006;BME280;63553;51.814;4.600;2024-01-25T01:05:09;102995.91;;;15.31;69.65
75006;BME280;63553;51.814;4.600;2024-01-25T01:07:35;102991.75;;;15.29;69.62
75006;BME280;63553;51.814;4.600;2024-01-25T01:10:01;103008.78;;;15.32;69.84
75006;BME280;63553;51.814;4.600;2024-01-25T01:12:26;102997.03;;;15.30;69.91
75006;BME280;63553;51.814;4.600;2024-01-25T01:14:51;103005.16;;;15.32;70.10
75006;BME280;63553;51.814;4.600;2024-01-25T01:17:17;103000.16;;;15.29;70.10
75006;BME280;63553;51.814;4.600;2024-01-25T01:19:43;103008.25;;;15.30;70.14
75006;BME280;63553;51.814;4.600;2024-01-25T01:22:09;103011.97;;;15.26;70.32
75006;BME280;63553;51.814;4.600;2024-01-25T01:24:34;103017.34;;;15.22;70.57
75006;BME280;63553;51.814;4.600;2024-01-25T01:27:00;103018.19;;;15.23;70.59
75006;BME280;63553;51.814;4.600;2024-01-25T01:29:25;103027.41;;;15.23;70.60
75006;BME280;63553;51.814;4.600;2024-01-25T01:31:50;103016.50;;;15.22;70.59
75006;BME280;63553;51.814;4.600;2024-01-25T01:34:16;103031.34;;;15.22;70.84
75006;BME280;63553;51.814;4.600;2024-01-25T01:36:43;103033.63;;;15.20;70.89
75006;BME280;63553;51.814;4.600;2024-01-25T01:39:08;103028.31;;;15.19;70.96
75006;BME280;63553;51.814;4.600;2024-01-25T01:41:34;103025.50;;;15.19;70.89
75006;BME280;63553;51.814;4.600;2024-01-25T01:43:59;103026.09;;;15.16;71.08
75006;BME280;63553;51.814;4.600;2024-01-25T01:46:35;103035.03;;;15.18;71.23
75006;BME280;63553;51.814;4.600;2024-01-25T01:49:02;103040.13;;;15.16;71.41
75006;BME280;63553;51.814;4.600;2024-01-25T01:51:30;103044.88;;;15.15;71.41
75006;BME280;63553;51.814;4.600;2024-01-25T01:53:57;103036.22;;;15.12;71.31
75006;BME280;63553;51.814;4.600;2024-01-25T01:56:24;103037.06;;;15.12;71.50
75006;BME280;63553;51.814;4.600;2024-01-25T01:58:52;103051.94;;;15.13;71.53
75006;BME280;63553;51.814;4.600;2024-01-25T02:01:19;103046.31;;;15.13;71.74
75006;BME280;63553;51.814;4.600;2024-01-25T02:03:45;103050.81;;;15.14;71.59
75006;BME280;63553;51.814;4.600;2024-01-25T02:06:10;103056.69;;;15.12;71.52
75006;BME280;63553;51.814;4.600;2024-01-25T02:08:36;103066.19;;;15.16;71.65
75006;BME280;63553;51.814;4.600;2024-01-25T02:11:02;103063.72;;;15.10;71.92
75006;BME280;63553;51.814;4.600;2024-01-25T02:13:27;103061.16;;;15.13;71.90
75006;BME280;63553;51.814;4.600;2024-01-25T02:15:52;103055.63;;;15.08;72.03
75006;BME280;63553;51.814;4.600;2024-01-25T02:18:18;103052.84;;;15.08;71.68
75006;BME280;63553;51.814;4.600;2024-01-25T02:20:43;103062.88;;;15.09;72.19
75006;BME280;63553;51.814;4.600;2024-01-25T02:23:08;103057.00;;;15.11;72.05
75006;BME280;63553;51.814;4.600;2024-01-25T02:25:34;103064.03;;;15.08;72.24
75006;BME280;63553;51.814;4.600;2024-01-25T02:27:59;103061.25;;;15.08;72.29
75006;BME280;63553;51.814;4.600;2024-01-25T02:30:24;103054.25;;;15.06;72.32
75006;BME280;63553;51.814;4.600;2024-01-25T02:32:50;103067.97;;;15.07;72.47
75006;BME280;63553;51.814;4.600;2024-01-25T02:35:15;103070.25;;;15.05;72.57
75006;BME280;63553;51.814;4.600;2024-01-25T02:37:40;103064.03;;;15.08;72.56
75006;BME280;63553;51.814;4.600;2024-01-25T02:40:06;103057.59;;;15.08;72.54
75006;BME280;63553;51.814;4.600;2024-01-25T02:42:32;103054.25;;;15.06;72.05
75006;BME280;63553;51.814;4.600;2024-01-25T02:44:57;103062.66;;;15.06;72.67
75006;BME280;63553;51.814;4.600;2024-01-25T02:47:23;103058.19;;;15.05;72.71
75006;BME280;63553;51.814;4.600;2024-01-25T02:49:48;103054.25;;;15.06;72.82
75006;BME280;63553;51.814;4.600;2024-01-25T02:52:13;103055.16;;;15.01;72.78
75006;BME280;63553;51.814;4.600;2024-01-25T02:54:39;103065.75;;;15.04;72.90
75006;BME280;63553;51.814;4.600;2024-01-25T02:57:04;103071.38;;;15.04;72.95
75006;BME280;63553;51.814;4.600;2024-01-25T02:59:30;103082.03;;;15.02;73.09
75006;BME280;63553;51.814;4.600;2024-01-25T03:01:55;103088.78;;;15.01;73.37
75006;BME280;63553;51.814;4.600;2024-01-25T03:04:20;103079.53;;;15.00;73.37
75006;BME280;63553;51.814;4.600;2024-01-25T03:06:46;103064.16;;;14.98;73.32
75006;BME280;63553;51.814;4.600;2024-01-25T03:09:11;103063.56;;;15.01;73.11
75006;BME280;63553;51.814;4.600;2024-01-25T03:11:36;103067.47;;;15.00;73.39
75006;BME280;63553;51.814;4.600;2024-01-25T03:14:02;103067.78;;;14.98;73.28
75006;BME280;63553;51.814;4.600;2024-01-25T03:16:27;103050.47;;;14.96;73.33
75006;BME280;63553;51.814;4.600;2024-01-25T03:18:52;103052.41;;;14.96;73.36
75006;BME280;63553;51.814;4.600;2024-01-25T03:21:18;103052.94;;;14.98;73.31
75006;BME280;63553;51.814;4.600;2024-01-25T03:23:43;103062.47;;;14.97;73.24
75006;BME280;63553;51.814;4.600;2024-01-25T03:26:08;103071.19;;;14.95;73.55
75006;BME280;63553;51.814;4.600;2024-01-25T03:28:34;103069.22;;;14.96;73.56
75006;BME280;63553;51.814;4.600;2024-01-25T03:31:00;103061.94;;;14.95;73.51
75006;BME280;63553;51.814;4.600;2024-01-25T03:33:25;103063.06;;;14.94;73.53
75006;BME280;63553;51.814;4.600;2024-01-25T03:35:53;103067.31;;;14.91;73.52
75006;BME280;63553;51.814;4.600;2024-01-25T03:38:18;103068.16;;;14.92;73.74
75006;BME280;63553;51.814;4.600;2024-01-25T03:40:44;103070.09;;;14.91;73.87
75006;BME280;63553;51.814;4.600;2024-01-25T03:43:09;103061.69;;;14.91;73.74
75006;BME280;63553;51.814;4.600;2024-01-25T03:45:34;103061.16;;;14.89;73.71
75006;BME280;63553;51.814;4.600;2024-01-25T03:48:00;103062.28;;;14.88;73.78
75006;BME280;63553;51.814;4.600;2024-01-25T03:50:26;103071.84;;;14.87;73.85
75006;BME280;63553;51.814;4.600;2024-01-25T03:52:52;103071.28;;;14.85;73.86
75006;BME280;63553;51.814;4.600;2024-01-25T03:55:17;103066.25;;;14.87;73.93
75006;BME280;63553;51.814;4.600;2024-01-25T03:57:42;103060.09;;;14.85;73.76
75006;BME280;63553;51.814;4.600;2024-01-25T04:00:08;103054.47;;;14.85;73.93
75006;BME280;63553;51.814;4.600;2024-01-25T04:02:34;103071.00;;;14.87;74.07
75006;BME280;63553;51.814;4.600;2024-01-25T04:05:00;103079.16;;;14.83;74.03
75006;BME280;63553;51.814;4.600;2024-01-25T04:07:25;103066.63;;;14.76;73.91
75006;BME280;63553;51.814;4.600;2024-01-25T04:09:50;103069.41;;;14.81;74.07
75006;BME280;63553;51.814;4.600;2024-01-25T04:12:16;103062.94;;;14.80;74.07
75006;BME280;63553;51.814;4.600;2024-01-25T04:14:41;103058.19;;;14.81;74.04
75006;BME280;63553;51.814;4.600;2024-01-25T04:17:07;103070.22;;;14.81;73.91
75006;BME280;63553;51.814;4.600;2024-01-25T04:19:32;103076.38;;;14.83;73.95
75006;BME280;63553;51.814;4.600;2024-01-25T04:21:57;103081.44;;;14.81;74.14
75006;BME280;63553;51.814;4.600;2024-01-25T04:24:22;103068.84;;;14.79;74.19
75006;BME280;63553;51.814;4.600;2024-01-25T04:26:48;103065.22;;;14.78;74.25
75006;BME280;63553;51.814;4.600;2024-01-25T04:29:13;103064.91;;;14.80;74.13
75006;BME280;63553;51.814;4.600;2024-01-25T04:31:45;103069.16;;;14.77;74.27
75006;BME280;63553;51.814;4.600;2024-01-25T04:34:15;103067.47;;;14.76;74.17
75006;BME280;63553;51.814;4.600;2024-01-25T04:36:40;103058.78;;;14.78;74.35
75006;BME280;63553;51.814;4.600;2024-01-25T04:39:06;103059.91;;;14.77;74.04
75006;BME280;63553;51.814;4.600;2024-01-25T04:41:31;103071.09;;;14.77;74.44
75006;BME280;63553;51.814;4.600;2024-01-25T04:43:56;103068.91;;;14.74;74.34
75006;BME280;63553;51.814;4.600;2024-01-25T04:46:22;103069.22;;;14.72;74.44
75006;BME280;63553;51.814;4.600;2024-01-25T04:48:47;103062.72;;;14.77;74.39
75006;BME280;63553;51.814;4.600;2024-01-25T04:51:19;103061.63;;;14.73;74.40
75006;BME280;63553;51.814;4.600;2024-01-25T04:53:46;103070.03;;;14.73;74.50
75006;BME280;63553;51.814;4.600;2024-01-25T04:56:11;103061.41;;;14.69;74.26
75006;BME280;63553;51.814;4.600;2024-01-25T04:58:36;103077.63;;;14.72;74.51
75006;BME280;63553;51.814;4.600;2024-01-25T05:01:02;103074.56;;;14.69;74.31
75006;BME280;63553;51.814;4.600;2024-01-25T05:03:27;103080.69;;;14.71;74.35
75006;BME280;63553;51.814;4.600;2024-01-25T05:05:53;103073.44;;;14.70;74.35
75006;BME280;63553;51.814;4.600;2024-01-25T05:08:18;103074.81;;;14.72;74.32
75006;BME280;63553;51.814;4.600;2024-01-25T05:10:43;103074.84;;;14.67;74.38
75006;BME280;63553;51.814;4.600;2024-01-25T05:13:09;103071.34;;;14.80;74.90
75006;BME280;63553;51.814;4.600;2024-01-25T05:15:34;103082.69;;;14.94;76.17
75006;BME280;63553;51.814;4.600;2024-01-25T05:18:00;103089.69;;;14.96;76.59
75006;BME280;63553;51.814;4.600;2024-01-25T05:20:25;103086.56;;;14.98;76.30
75006;BME280;63553;51.814;4.600;2024-01-25T05:22:57;103096.09;;;14.97;75.70
75006;BME280;63553;51.814;4.600;2024-01-25T05:25:22;103097.84;;;14.93;75.79
75006;BME280;63553;51.814;4.600;2024-01-25T05:27:47;103094.25;;;14.87;75.81
75006;BME280;63553;51.814;4.600;2024-01-25T05:30:13;103094.28;;;14.82;75.94
75006;BME280;63553;51.814;4.600;2024-01-25T05:32:38;103099.13;;;14.77;76.13
75006;BME280;63553;51.814;4.600;2024-01-25T05:35:04;103103.34;;;14.74;76.10
75006;BME280;63553;51.814;4.600;2024-01-25T05:37:30;103091.06;;;14.70;76.38
75006;BME280;63553;51.814;4.600;2024-01-25T05:39:55;103093.56;;;14.72;76.54
75006;BME280;63553;51.814;4.600;2024-01-25T05:42:21;103092.72;;;14.71;76.66
75006;BME280;63553;51.814;4.600;2024-01-25T05:44:46;103090.25;;;14.70;76.53
75006;BME280;63553;51.814;4.600;2024-01-25T05:47:11;103085.75;;;14.69;76.70
75006;BME280;63553;51.814;4.600;2024-01-25T05:49:37;103085.75;;;14.69;76.89
75006;BME280;63553;51.814;4.600;2024-01-25T05:52:02;103096.72;;;14.65;76.80
75006;BME280;63553;51.814;4.600;2024-01-25T05:54:28;103086.94;;;14.63;76.73
75006;BME280;63553;51.814;4.600;2024-01-25T05:56:53;103094.22;;;14.64;76.71
75006;BME280;63553;51.814;4.600;2024-01-25T05:59:19;103085.81;;;14.64;76.68
75006;BME280;63553;51.814;4.600;2024-01-25T06:01:44;103088.91;;;14.62;76.86
75006;BME280;63553;51.814;4.600;2024-01-25T06:04:09;103090.34;;;14.60;76.78
75006;BME280;63553;51.814;4.600;2024-01-25T06:06:35;103099.56;;;14.60;76.73
75006;BME280;63553;51.814;4.600;2024-01-25T06:09:00;103095.94;;;14.60;76.86
75006;BME280;63553;51.814;4.600;2024-01-25T06:11:25;103100.69;;;14.59;76.60
75006;BME280;63553;51.814;4.600;2024-01-25T06:13:51;103099.31;;;14.57;76.29
75006;BME280;63553;51.814;4.600;2024-01-25T06:16:16;103093.72;;;14.57;76.46
75006;BME280;63553;51.814;4.600;2024-01-25T06:18:41;103083.63;;;14.56;76.50
75006;BME280;63553;51.814;4.600;2024-01-25T06:21:07;103087.34;;;14.51;76.46
75006;BME280;63553;51.814;4.600;2024-01-25T06:23:32;103086.44;;;14.56;76.41
75006;BME280;63553;51.814;4.600;2024-01-25T06:25:57;103090.38;;;14.55;76.44
75006;BME280;63553;51.814;4.600;2024-01-25T06:28:23;103090.91;;;14.57;76.47
75006;BME280;63553;51.814;4.600;2024-01-25T06:30:48;103095.41;;;14.58;76.51
75006;BME280;63553;51.814;4.600;2024-01-25T06:33:13;103092.34;;;14.54;76.44
75006;BME280;63553;51.814;4.600;2024-01-25T06:35:39;103096.81;;;14.55;76.45
75006;BME280;63553;51.814;4.600;2024-01-25T06:38:04;103099.06;;;14.53;76.46
75006;BME280;63553;51.814;4.600;2024-01-25T06:40:29;103087.34;;;14.51;76.57
75006;BME280;63553;51.814;4.600;2024-01-25T06:42:55;103104.13;;;14.51;76.49
75006;BME280;63553;51.814;4.600;2024-01-25T06:45:20;103106.94;;;14.51;76.71
75006;BME280;63553;51.814;4.600;2024-01-25T06:47:46;103101.91;;;14.48;76.57
75006;BME280;63553;51.814;4.600;2024-01-25T06:50:11;103107.78;;;14.46;76.24
75006;BME280;63553;51.814;4.600;2024-01-25T06:52:37;103104.19;;;14.46;75.92
75006;BME280;63553;51.814;4.600;2024-01-25T06:55:02;103105.31;;;14.45;76.27
75006;BME280;63553;51.814;4.600;2024-01-25T06:57:28;103088.25;;;14.41;76.34
75006;BME280;63553;51.814;4.600;2024-01-25T06:59:53;103099.47;;;14.41;76.37
75006;BME280;63553;51.814;4.600;2024-01-25T07:02:18;103091.38;;;14.40;76.34
75006;BME280;63553;51.814;4.600;2024-01-25T07:04:44;103090.78;;;14.43;76.27
75006;BME280;63553;51.814;4.600;2024-01-25T07:07:09;103102.78;;;14.43;76.13
75006;BME280;63553;51.814;4.600;2024-01-25T07:09:34;103102.78;;;14.43;76.23
75006;BME280;63553;51.814;4.600;2024-01-25T07:12:00;103099.19;;;14.38;76.17
75006;BME280;63553;51.814;4.600;2024-01-25T07:14:25;103112.03;;;14.44;75.88
75006;BME280;63553;51.814;4.600;2024-01-25T07:16:50;103131.09;;;5.96;78.27
75006;BME280;63553;51.814;4.600;2024-01-25T07:19:16;103140.19;;;4.58;86.83
75006;BME280;63553;51.814;4.600;2024-01-25T07:21:41;103148.28;;;4.28;90.05
75006;BME280;63553;51.814;4.600;2024-01-25T07:24:07;103143.28;;;4.43;91.69
75006;BME280;63553;51.814;4.600;2024-01-25T07:26:32;103140.97;;;4.40;91.69
75006;BME280;63553;51.814;4.600;2024-01-25T07:28:57;103146.38;;;4.28;91.92
75006;BME280;63553;51.814;4.600;2024-01-25T07:31:25;103143.16;;;4.31;91.36
75006;BME280;63553;51.814;4.600;2024-01-25T07:33:51;103135.72;;;4.38;90.93
75006;BME280;63553;51.814;4.600;2024-01-25T07:36:17;103132.25;;;4.68;91.74
75006;BME280;63553;51.814;4.600;2024-01-25T07:38:42;103125.59;;;4.75;90.44
75006;BME280;63553;51.814;4.600;2024-01-25T07:41:08;103128.28;;;4.82;90.57
75006;BME280;63553;51.814;4.600;2024-01-25T07:43:33;103136.88;;;4.92;90.41
75006;BME280;63553;51.814;4.600;2024-01-25T07:45:58;103142.38;;;4.92;89.63
75006;BME280;63553;51.814;4.600;2024-01-25T07:48:24;103148.34;;;4.89;90.09
75006;BME280;63553;51.814;4.600;2024-01-25T07:50:49;103163.69;;;5.03;89.73
75006;BME280;63553;51.814;4.600;2024-01-25T07:53:14;103162.03;;;4.77;90.24
75006;BME280;63553;51.814;4.600;2024-01-25T07:55:41;103133.28;;;4.91;90.54
75006;BME280;63553;51.814;4.600;2024-01-25T07:58:07;103105.41;;;7.79;95.97
75006;BME280;63553;51.814;4.600;2024-01-25T08:00:32;103118.78;;;9.91;90.33
75006;BME280;63553;51.814;4.600;2024-01-25T08:02:57;103117.19;;;11.57;81.75
75006;BME280;63553;51.814;4.600;2024-01-25T08:05:22;103095.88;;;12.44;76.87
75006;BME280;63553;51.814;4.600;2024-01-25T08:07:48;103090.50;;;12.77;77.95
75006;BME280;63553;51.814;4.600;2024-01-25T08:10:14;103095.19;;;13.02;77.17
75006;BME280;63553;51.814;4.600;2024-01-25T08:12:41;103103.78;;;13.26;75.17
75006;BME280;63553;51.814;4.600;2024-01-25T08:15:09;103111.81;;;13.43;74.37
75006;BME280;63553;51.814;4.600;2024-01-25T08:17:35;103115.41;;;13.53;73.71
75006;BME280;63553;51.814;4.600;2024-01-25T08:20:02;103114.50;;;13.68;73.46
75006;BME280;63553;51.814;4.600;2024-01-25T08:22:27;103098.78;;;13.77;73.27
75006;BME280;63553;51.814;4.600;2024-01-25T08:24:53;103104.88;;;13.84;73.21
75006;BME280;63553;51.814;4.600;2024-01-25T08:27:19;103105.72;;;13.89;73.13
75006;BME280;63553;51.814;4.600;2024-01-25T08:29:44;103112.91;;;13.96;73.08
75006;BME280;63553;51.814;4.600;2024-01-25T08:32:10;103105.94;;;13.98;73.13
75006;BME280;63553;51.814;4.600;2024-01-25T08:34:35;103120.13;;;14.07;72.81
75006;BME280;63553;51.814;4.600;2024-01-25T08:37:01;103114.44;;;14.17;72.78
75006;BME280;63553;51.814;4.600;2024-01-25T08:39:26;103112.69;;;14.26;72.48
75006;BME280;63553;51.814;4.600;2024-01-25T08:41:51;103106.00;;;14.27;72.02
75006;BME280;63553;51.814;4.600;2024-01-25T08:44:17;103100.66;;;14.25;72.12
75006;BME280;63553;51.814;4.600;2024-01-25T08:46:42;103103.19;;;14.27;72.16
75006;BME280;63553;51.814;4.600;2024-01-25T08:49:09;103098.13;;;14.29;72.21
75006;BME280;63553;51.814;4.600;2024-01-25T08:51:35;103101.50;;;14.31;72.19
75006;BME280;63553;51.814;4.600;2024-01-25T08:54:01;103105.94;;;14.37;72.15
75006;BME280;63553;51.814;4.600;2024-01-25T08:56:26;103112.91;;;14.39;72.08
75006;BME280;63553;51.814;4.600;2024-01-25T08:58:51;103119.56;;;14.49;71.85
75006;BME280;63553;51.814;4.600;2024-01-25T09:01:17;103108.06;;;14.50;72.07
75006;BME280;63553;51.814;4.600;2024-01-25T09:03:43;103106.63;;;14.53;71.84
75006;BME280;63553;51.814;4.600;2024-01-25T09:06:08;103102.38;;;14.60;71.81
75006;BME280;63553;51.814;4.600;2024-01-25T09:08:34;103103.16;;;14.66;71.90
75006;BME280;63553;51.814;4.600;2024-01-25T09:10:59;103101.66;;;14.73;72.07
75006;BME280;63553;51.814;4.600;2024-01-25T09:13:25;103099.28;;;14.85;72.46
75006;BME280;63553;51.814;4.600;2024-01-25T09:15:50;103100.88;;;14.96;72.96
75006;BME280;63553;51.814;4.600;2024-01-25T09:18:15;103099.50;;;15.18;73.04
75006;BME280;63553;51.814;4.600;2024-01-25T09:20:41;103104.47;;;15.44;72.91
75006;BME280;63553;51.814;4.600;2024-01-25T09:23:09;103097.13;;;15.72;72.44
75006;BME280;63553;51.814;4.600;2024-01-25T09:25:35;103101.47;;;16.02;71.50
75006;BME280;63553;51.814;4.600;2024-01-25T09:28:01;103093.28;;;16.38;70.93
75006;BME280;63553;51.814;4.600;2024-01-25T09:30:26;103088.19;;;16.72;69.69
75006;BME280;63553;51.814;4.600;2024-01-25T09:32:52;103085.66;;;17.03;68.43
75006;BME280;63553;51.814;4.600;2024-01-25T09:35:17;103088.97;;;17.32;68.27
75006;BME280;63553;51.814;4.600;2024-01-25T09:37:42;103086.88;;;17.65;67.50
75006;BME280;63553;51.814;4.600;2024-01-25T09:40:08;103079.31;;;17.88;66.21
75006;BME280;63553;51.814;4.600;2024-01-25T09:42:35;103086.56;;;18.24;65.38
75006;BME280;63553;51.814;4.600;2024-01-25T09:45:04;103086.19;;;18.40;63.77
75006;BME280;63553;51.814;4.600;2024-01-25T09:47:31;103084.22;;;18.62;61.93
75006;BME280;63553;51.814;4.600;2024-01-25T09:49:56;103084.63;;;18.78;61.83
75006;BME280;63553;51.814;4.600;2024-01-25T09:52:23;103076.06;;;18.92;61.17
75006;BME280;63553;51.814;4.600;2024-01-25T09:54:52;103078.19;;;19.82;100.00
75006;BME280;63553;51.814;4.600;2024-01-25T09:57:22;103068.97;;;20.71;100.00
75006;BME280;63553;51.814;4.600;2024-01-25T09:59:49;103060.41;;;21.34;100.00
75006;BME280;63553;51.814;4.600;2024-01-25T10:02:15;103058.22;;;21.90;100.00
75006;BME280;63553;51.814;4.600;2024-01-25T10:04:41;103039.63;;;22.34;100.00
75006;BME280;63553;51.814;4.600;2024-01-25T10:07:06;103069.09;;;10.26;73.71
75006;BME280;63553;51.814;4.600;2024-01-25T10:09:38;103068.13;;;8.32;83.37
75006;BME280;63553;51.814;4.600;2024-01-25T10:12:05;103074.13;;;8.12;87.60
75006;BME280;63553;51.814;4.600;2024-01-25T10:14:30;103080.13;;;7.76;87.08
75006;BME280;63553;51.814;4.600;2024-01-25T10:16:57;103081.25;;;7.75;86.38
75006;BME280;63553;51.814;4.600;2024-01-25T10:19:23;103086.16;;;7.56;87.78
75006;BME280;63553;51.814;4.600;2024-01-25T10:21:49;103087.66;;;7.92;89.52
75006;BME280;63553;51.814;4.600;2024-01-25T10:24:14;103085.09;;;7.91;87.72
75006;BME280;63553;51.814;4.600;2024-01-25T10:26:41;103086.03;;;7.96;88.41
75006;BME280;63553;51.814;4.600;2024-01-25T10:29:08;103086.53;;;7.76;88.54
75006;BME280;63553;51.814;4.600;2024-01-25T10:31:37;103085.50;;;7.66;88.28
75006;BME280;63553;51.814;4.600;2024-01-25T10:34:04;103085.97;;;8.08;87.50
75006;BME280;63553;51.814;4.600;2024-01-25T10:36:30;103088.72;;;8.08;86.85
75006;BME280;63553;51.814;4.600;2024-01-25T10:38:57;103101.03;;;8.28;86.47
75006;BME280;63553;51.814;4.600;2024-01-25T10:41:23;103098.28;;;8.45;86.47
75006;BME280;63553;51.814;4.600;2024-01-25T10:43:49;103092.81;;;8.50;86.08
75006;BME280;63553;51.814;4.600;2024-01-25T10:46:14;103080.63;;;8.51;86.41
75006;BME280;63553;51.814;4.600;2024-01-25T10:48:41;103086.81;;;8.75;82.85
75006;BME280;63553;51.814;4.600;2024-01-25T10:51:06;103073.06;;;8.47;85.58
75006;BME280;63553;51.814;4.600;2024-01-25T10:53:33;103073.03;;;9.02;86.55
75006;BME280;63553;51.814;4.600;2024-01-25T10:56:00;103071.59;;;9.21;84.91
75006;BME280;63553;51.814;4.600;2024-01-25T10:58:33;103070.81;;;8.82;82.76
75006;BME280;63553;51.814;4.600;2024-01-25T11:01:01;103064.28;;;8.71;84.10
75006;BME280;63553;51.814;4.600;2024-01-25T11:03:27;103052.63;;;8.69;83.38
75006;BME280;63553;51.814;4.600;2024-01-25T11:05:54;103047.59;;;8.88;82.97
75006;BME280;63553;51.814;4.600;2024-01-25T11:08:20;103039.72;;;9.02;83.40
75006;BME280;63553;51.814;4.600;2024-01-25T11:10:53;103028.44;;;9.08;81.89
75006;BME280;63553;51.814;4.600;2024-01-25T11:13:29;103028.31;;;8.98;82.51
75006;BME280;63553;51.814;4.600;2024-01-25T11:15:55;103029.72;;;9.01;83.07
75006;BME280;63553;51.814;4.600;2024-01-25T11:18:24;103029.28;;;8.87;83.44
75006;BME280;63553;51.814;4.600;2024-01-25T11:20:50;103031.41;;;8.80;83.29
75006;BME280;63553;51.814;4.600;2024-01-25T11:23:16;103032.28;;;8.85;82.69
75006;BME280;63553;51.814;4.600;2024-01-25T11:25:44;103032.97;;;8.92;83.04
75006;BME280;63553;51.814;4.600;2024-01-25T11:28:11;103026.94;;;8.79;83.50
75006;BME280;63553;51.814;4.600;2024-01-25T11:30:39;103034.81;;;9.30;81.82
75006;BME280;63553;51.814;4.600;2024-01-25T11:33:04;103018.81;;;9.16;81.45
75006;BME280;63553;51.814;4.600;2024-01-25T11:35:30;103017.63;;;9.12;82.39
75006;BME280;63553;51.814;4.600;2024-01-25T11:37:56;103007.47;;;9.17;82.25
75006;BME280;63553;51.814;4.600;2024-01-25T11:40:23;103003.00;;;9.43;80.76
75006;BME280;63553;51.814;4.600;2024-01-25T11:42:49;102985.63;;;9.26;81.19
75006;BME280;63553;51.814;4.600;2024-01-25T11:45:16;102984.31;;;9.33;81.03
75006;BME280;63553;51.814;4.600;2024-01-25T11:47:44;102980.00;;;9.47;80.06
75006;BME280;63553;51.814;4.600;2024-01-25T11:50:11;102976.50;;;9.30;80.42
75006;BME280;63553;51.814;4.600;2024-01-25T11:52:37;102967.13;;;9.36;80.71
75006;BME280;63553;51.814;4.600;2024-01-25T11:55:11;102960.88;;;9.51;81.40
75006;BME280;63553;51.814;4.600;2024-01-25T11:57:39;102955.25;;;9.73;81.03
75006;BME280;63553;51.814;4.600;2024-01-25T12:00:07;102948.50;;;9.32;81.31
75006;BME280;63553;51.814;4.600;2024-01-25T12:02:35;102952.47;;;9.73;79.90
75006;BME280;63553;51.814;4.600;2024-01-25T12:05:02;102943.91;;;9.79;79.76
75006;BME280;63553;51.814;4.600;2024-01-25T12:07:30;102952.25;;;9.79;80.02
75006;BME280;63553;51.814;4.600;2024-01-25T12:10:01;102944.84;;;9.95;79.15
75006;BME280;63553;51.814;4.600;2024-01-25T12:12:27;102941.19;;;9.84;79.29
75006;BME280;63553;51.814;4.600;2024-01-25T12:15:00;102939.25;;;9.85;79.46
75006;BME280;63553;51.814;4.600;2024-01-25T12:17:30;102934.03;;;9.98;78.45
75006;BME280;63553;51.814;4.600;2024-01-25T12:19:57;102933.00;;;10.10;78.81
75006;BME280;63553;51.814;4.600;2024-01-25T12:22:23;102917.78;;;9.80;80.34
75006;BME280;63553;51.814;4.600;2024-01-25T12:24:53;102917.88;;;10.27;79.09
75006;BME280;63553;51.814;4.600;2024-01-25T12:27:20;102908.91;;;9.78;80.01
75006;BME280;63553;51.814;4.600;2024-01-25T12:29:46;102915.47;;;10.04;79.69
75006;BME280;63553;51.814;4.600;2024-01-25T12:32:11;102909.09;;;10.50;77.16
75006;BME280;63553;51.814;4.600;2024-01-25T12:34:37;102913.13;;;10.23;77.93
75006;BME280;63553;51.814;4.600;2024-01-25T12:37:04;102900.91;;;10.29;78.16
75006;BME280;63553;51.814;4.600;2024-01-25T12:39:29;102895.66;;;10.32;77.89
75006;BME280;63553;51.814;4.600;2024-01-25T12:41:55;102882.97;;;10.62;76.63
75006;BME280;63553;51.814;4.600;2024-01-25T12:44:20;102887.94;;;10.54;77.75
75006;BME280;63553;51.814;4.600;2024-01-25T12:46:45;102884.53;;;10.32;77.79